Flight Track Log - Related Links

Times and Time Zones

All times are in EDT time to prevent confusion due to time zone crossing. See the EJA312 flight status page for this flight to view local times or setup timezone preferences in your user account.

Time Position Orientation Groundspeed Altitude Reporting Facility
EDT Latitude Longitude Course Direction KTS MPH feet Rate Location/Type
Sat 11:40:47 AM 42.4667 -71.2667 56° Northeast 175 201 1,300  Level KA90
Sat 11:41:29 AM 42.4833 -71.2333 56° Northeast 198 228 2,100 471 Climbing KA90
Sat 11:42:29 AM 42.5167 -71.1667 56° Northeast 184 212 2,100 1,950 Level KA90
Sat 11:44:49 AM 42.5978 -71.0100 55° Northeast 244 281 8,600 2,310 Climbing Boston Center
Sat 11:45:49 AM 42.6403 -70.9189 58° Northeast 276 318 9,800 2,088 Climbing Boston Center
Sat 11:47:00 AM 42.6810 -70.8064 64° Northeast  Level FlightAware Approximate
Sat 11:47:50 AM 42.7461 -70.7297 64° Northeast 304 350 14,900  Level Boston Center
Sat 11:48:50 AM 42.8194 -70.6314 45° Northeast 350 403 17,100 1,587 Climbing Boston Center
Sat 11:49:51 AM 42.8950 -70.5300 44° Northeast 375 432 18,100 942 Climbing Boston Center
Sat 11:50:51 AM 42.9764 -70.4194 45° Northeast 400 460 19,000 458 Climbing Boston Center
Sat 11:51:49 AM 43.0497 -70.3206 45° Northeast 400 460 19,000  Level Boston Center
Sat 11:52:50 AM 43.1350 -70.2036 45° Northeast 395 455 19,000  Level Boston Center
Sat 11:53:50 AM 43.2061 -70.1100 44° Northeast 395 455 19,000  Level Boston Center
Sat 11:54:50 AM 43.2911 -69.9925 45° Northeast 395 455 19,000  Level Boston Center
Sat 11:55:51 AM 43.3619 -69.8956 45° Northeast 395 455 19,000  Level Boston Center
Sat 11:56:49 AM 43.4489 -69.7803 44° Northeast 395 455 19,000  Level Boston Center
Sat 11:57:51 AM 43.5197 -69.6828 45° Northeast 395 455 19,000  Level Boston Center
Sat 11:58:51 AM 43.6042 -69.5583 47° Northeast 395 455 19,000  Level Boston Center
Sat 11:59:51 AM 43.6681 -69.4519 50° Northeast 400 460 19,000  Level Boston Center
Sat 12:00:49 PM 43.7481 -69.3244 49° Northeast 400 460 19,000 -712 Level Boston Center
Sat 12:01:49 PM 43.8219 -69.2025 50° Northeast 400 460 17,600 -1,686 Descending Boston Center
Sat 12:02:50 PM 43.8936 -69.0864 49° Northeast 400 460 15,600 -2,311 Descending Boston Center
Sat 12:03:51 PM 43.9653 -68.9725 49° Northeast 395 455 12,900 -2,269 Descending Boston Center
Sat 12:04:49 PM 44.0228 -68.8769 50° Northeast 371 427 11,100 -2,136 Descending Boston Center
Sat 12:05:49 PM 44.0744 -68.7958 48° Northeast 310 357 8,700 -2,380 Descending Boston Center
Sat 12:06:50 PM 44.1219 -68.7175 50° Northeast 275 316 6,300 -2,164 Descending Boston Center
Sat 12:07:51 PM 44.1694 -68.6453 47° Northeast 257 296 4,300 -1,587 Descending Boston Center
Sat 12:08:51 PM 44.2131 -68.5728 50° Northeast 247 284 3,100 -650 Descending Boston Center
Sat 12:09:51 PM 44.2483 -68.5067 53° Northeast 241 277 3,000 -51 Descending Boston Center
Sat 12:10:49 PM 44.2917 -68.4369 49° Northeast 220 253 3,000 4,068 Level Boston Center
Sat 12:11:49 PM 44.3311 -68.3706 50° Northeast 220 253 11,000 3,967 Climbing Boston Center
Sat 12:12:50 PM 44.3703 -68.3011 52° Northeast 220 253 11,000  Level Boston Center
Sat 12:13:51 PM 44.4094 -68.2342 51° Northeast 220 253 11,000  Level Boston Center
Sat 12:14:51 PM 44.4331 -68.1919 52° Northeast 220 253 11,000  Level Boston Center
Sat 12:15:51 PM 44.4331 -68.1919 216° Southwest 220 253 11,000  Level Boston Center
Sat 12:17:49 PM 44.4331 -68.1919 216° Southwest 220 253 11,000  Level Boston Center

Login

Don't have an account? Register now (free) for customized features, flight alerts, and more!